Time;durP1;ratioP1;P1;durP2;ratioP2;P2;SDS_P1;SDS_P2;PMS_P1;PMS_P2;Temp;Humidity;BMP_temperature;BMP_pressure;BME280_temperature;BME280_humidity;BME280_pressure;Samples;Min_cycle;Max_cycle;Signal;HPM_P1;HPM_P2
2021/07/07 00:02:49;;;;;;;;;21.00;20.25;;;;;;;;8821718;40;10622;-60
2021/07/07 00:08:51;;;;;;;;;26.25;24.75;;;;;;;;8822610;40;11711;-61
2021/07/07 00:14:53;;;;;;;;;22.00;19.00;;;;;;;;8821592;40;10616;-62
2021/07/07 00:20:55;;;;;;;;;21.25;19.25;;;;;;;;8821909;40;11072;-61
2021/07/07 00:26:57;;;;;;;;;19.25;18.50;;;;;;;;8822367;40;10685;-61
2021/07/07 00:32:59;;;;;;;;;24.75;23.00;;;;;;;;8821249;40;10386;-61
2021/07/07 00:39:02;;;;;;;;;22.00;20.50;;;;;;;;8821296;40;10502;-61
2021/07/07 00:45:05;;;;;;;;;28.00;26.25;;;;;;;;8821526;40;10747;-62
2021/07/07 00:51:07;;;;;;;;;27.50;23.25;;;;;;;;8821593;40;10460;-61
2021/07/07 00:57:11;;;;;;;;;26.75;23.25;;;;;;;;8820997;40;10644;-61
2021/07/07 01:03:13;;;;;;;;;25.50;24.50;;;;;;;;8821038;40;10486;-61
2021/07/07 01:09:14;;;;;;;;;31.50;26.75;;;;;;;;8821314;40;10665;-61
2021/07/07 01:15:19;;;;;;;;;26.25;25.25;;;;;;;;8824692;40;10806;-59
2021/07/07 01:21:23;;;;;;;;;31.25;31.25;;;;;;;;8823841;40;10702;-61
2021/07/07 01:27:26;;;;;;;;;32.25;28.50;;;;;;;;8825405;40;10768;-62
2021/07/07 01:33:27;;;;;;;;;35.75;29.25;;;;;;;;8824648;40;10667;-62
2021/07/07 01:39:29;;;;;;;;;27.25;24.50;;;;;;;;8823955;40;10668;-61
2021/07/07 01:45:31;;;;;;;;;34.50;33.25;;;;;;;;8824307;40;10694;-61
2021/07/07 01:51:35;;;;;;;;;35.50;31.25;;;;;;;;8823503;40;11333;-61
2021/07/07 01:57:43;;;;;;;;;33.33;31.67;;;;;;;;8823827;40;10408;-61
2021/07/07 02:03:46;;;;;;;;;36.00;32.33;;;;;;;;8823638;40;10606;-60
2021/07/07 02:09:48;;;;;;;;;31.00;28.50;;;;;;;;8824392;40;11073;-61
2021/07/07 02:15:51;;;;;;;;;31.33;26.00;;;;;;;;8824564;40;10319;-60
2021/07/07 02:21:53;;;;;;;;;28.75;25.00;;;;;;;;8822700;40;10750;-60
2021/07/07 02:27:56;;;;;;;;;30.50;26.00;;;;;;;;8823532;40;11421;-61
2021/07/07 02:33:58;;;;;;;;;29.50;27.00;;;;;;;;8832010;40;10842;-60
2021/07/07 02:40:01;;;;;;;;;39.33;35.33;;;;;;;;8849080;40;10427;-60
2021/07/07 02:46:04;;;;;;;;;27.25;25.50;;;;;;;;8842291;40;11042;-61
2021/07/07 02:52:06;;;;;;;;;25.00;25.00;;;;;;;;8822569;40;9970;-61
2021/07/07 02:58:09;;;;;;;;;29.50;26.75;;;;;;;;8822666;40;10996;-60
2021/07/07 03:04:10;;;;;;;;;32.67;30.67;;;;;;;;8821966;40;10973;-60
2021/07/07 03:10:13;;;;;;;;;29.67;29.00;;;;;;;;8823545;40;10153;-59
2021/07/07 03:16:15;;;;;;;;;39.00;32.33;;;;;;;;8827484;40;10668;-60
2021/07/07 03:22:18;;;;;;;;;29.00;27.33;;;;;;;;8836884;40;10257;-61
2021/07/07 03:28:22;;;;;;;;;28.75;26.75;;;;;;;;8846503;40;10774;-60
2021/07/07 03:34:24;;;;;;;;;27.67;23.67;;;;;;;;8834785;40;10148;-61
2021/07/07 03:40:28;;;;;;;;;32.00;27.00;;;;;;;;8837815;40;10908;-61
2021/07/07 03:46:30;;;;;;;;;29.00;26.00;;;;;;;;8845856;40;10773;-59
2021/07/07 03:52:32;;;;;;;;;29.00;27.25;;;;;;;;8845983;40;10792;-60
2021/07/07 03:58:34;;;;;;;;;27.75;26.00;;;;;;;;8846081;40;10704;-60
2021/07/07 04:04:36;;;;;;;;;30.75;26.75;;;;;;;;9886427;22;10879;-65
2021/07/07 04:10:38;;;;;;;;;25.00;23.00;;;;;;;;8844280;40;10852;-65
2021/07/07 04:16:40;;;;;;;;;28.25;26.00;;;;;;;;8846907;40;10880;-65
2021/07/07 04:22:43;;;;;;;;;22.50;22.50;;;;;;;;8843175;40;11277;-65
2021/07/07 04:28:44;;;;;;;;;28.25;26.00;;;;;;;;8851031;40;10719;-65
2021/07/07 04:34:46;;;;;;;;;24.75;23.25;;;;;;;;8839880;40;10724;-65
2021/07/07 04:40:48;;;;;;;;;25.25;25.00;;;;;;;;8848322;40;10490;-65
2021/07/07 04:46:50;;;;;;;;;26.00;25.00;;;;;;;;8834860;40;10617;-66
2021/07/07 04:52:52;;;;;;;;;25.50;24.50;;;;;;;;8829000;40;10532;-65
2021/07/07 04:58:54;;;;;;;;;24.00;21.50;;;;;;;;8829660;40;10576;-65
2021/07/07 05:04:56;;;;;;;;;27.50;24.00;;;;;;;;8840509;40;10438;-65
2021/07/07 05:10:58;;;;;;;;;23.75;22.25;;;;;;;;8864382;40;10449;-66
2021/07/07 05:17:02;;;;;;;;;21.00;20.50;;;;;;;;8839315;40;10871;-65
2021/07/07 05:23:07;;;;;;;;;21.25;20.00;;;;;;;;8827497;40;10293;-65
2021/07/07 05:29:09;;;;;;;;;22.75;20.50;;;;;;;;8830215;40;10305;-65
2021/07/07 05:35:13;;;;;;;;;28.00;24.75;;;;;;;;8843395;40;10589;-66
2021/07/07 05:41:18;;;;;;;;;21.00;21.00;;;;;;;;8839707;40;10265;-65
2021/07/07 05:47:24;;;;;;;;;26.00;22.50;;;;;;;;8839356;40;11268;-64
2021/07/07 05:53:28;;;;;;;;;22.75;22.00;;;;;;;;8845366;40;10557;-65
2021/07/07 05:59:30;;;;;;;;;23.00;18.75;;;;;;;;8846227;40;10379;-65
2021/07/07 06:05:32;;;;;;;;;24.25;22.50;;;;;;;;8840616;40;10468;-63
2021/07/07 06:11:34;;;;;;;;;19.75;18.75;;;;;;;;8827438;40;10290;-65
2021/07/07 06:17:37;;;;;;;;;19.00;19.00;;;;;;;;8830602;40;10337;-65
2021/07/07 06:23:40;;;;;;;;;24.25;19.75;;;;;;;;8844853;40;11028;-65
2021/07/07 06:29:42;;;;;;;;;23.25;23.25;;;;;;;;8831007;40;10396;-66
2021/07/07 06:35:44;;;;;;;;;23.50;20.75;;;;;;;;8843583;40;10340;-65
2021/07/07 06:41:45;;;;;;;;;24.25;21.75;;;;;;;;8838394;40;10327;-65
2021/07/07 06:47:47;;;;;;;;;19.75;17.50;;;;;;;;8850234;40;10370;-66
2021/07/07 06:53:49;;;;;;;;;23.00;19.75;;;;;;;;8842303;40;10547;-66
2021/07/07 06:59:51;;;;;;;;;20.25;18.50;;;;;;;;8843749;40;10403;-66
2021/07/07 07:05:53;;;;;;;;;20.25;18.50;;;;;;;;8834156;40;10528;-65
2021/07/07 07:11:55;;;;;;;;;15.75;14.50;;;;;;;;8833408;40;10332;-66
2021/07/07 07:17:57;;;;;;;;;18.25;18.25;;;;;;;;8834585;40;10903;-66
2021/07/07 07:23:59;;;;;;;;;19.75;19.00;;;;;;;;8826103;40;10495;-68
2021/07/07 07:30:03;;;;;;;;;20.50;19.25;;;;;;;;8828691;40;10441;-66
2021/07/07 07:36:06;;;;;;;;;24.00;21.75;;;;;;;;8827631;40;10378;-65
2021/07/07 07:42:12;;;;;;;;;22.00;19.25;;;;;;;;8838831;40;10345;-65
2021/07/07 07:48:13;;;;;;;;;20.25;19.25;;;;;;;;8833254;40;10573;-65
2021/07/07 07:54:16;;;;;;;;;19.25;19.00;;;;;;;;8837146;40;10348;-64
2021/07/07 08:00:23;;;;;;;;;24.25;22.75;;;;;;;;8834524;40;10595;-64
2021/07/07 08:06:26;;;;;;;;;19.50;18.75;;;;;;;;8835296;40;10296;-64
2021/07/07 08:12:29;;;;;;;;;18.75;18.75;;;;;;;;8832506;40;10545;-64
2021/07/07 08:18:31;;;;;;;;;8.00;6.00;;;;;;;;8817244;40;10262;-66
2021/07/07 08:24:34;;;;;;;;;15.00;15.00;;;;;;;;8822558;40;10252;-66
2021/07/07 08:30:38;;;;;;;;;13.00;13.00;;;;;;;;8829522;40;10368;-65
2021/07/07 08:36:40;;;;;;;;;16.75;14.75;;;;;;;;8836462;40;10305;-65
2021/07/07 08:42:44;;;;;;;;;12.75;12.75;;;;;;;;8838605;40;10328;-66
2021/07/07 08:48:47;;;;;;;;;18.25;18.25;;;;;;;;8841517;40;10482;-66
2021/07/07 08:54:48;;;;;;;;;18.50;16.50;;;;;;;;8835019;40;10325;-64
2021/07/07 09:00:51;;;;;;;;;17.00;17.00;;;;;;;;8839751;40;10312;-65
2021/07/07 09:07:09;;;;;;;;;16.00;15.75;;;;;;;;8822378;40;10527;-64
2021/07/07 09:13:17;;;;;;;;;19.50;16.75;;;;;;;;8815115;40;10530;-63
2021/07/07 09:19:23;;;;;;;;;15.25;15.25;;;;;;;;8801721;40;10703;-64
2021/07/07 09:25:29;;;;;;;;;13.50;13.25;;;;;;;;8816025;40;10449;-64
2021/07/07 09:31:43;;;;;;;;;20.00;19.75;;;;;;;;8818927;40;10791;-66
2021/07/07 09:37:49;;;;;;;;;26.50;22.75;;;;;;;;8815001;40;10756;-67
2021/07/07 09:43:54;;;;;;;;;15.50;15.25;;;;;;;;8817925;40;10730;-66
2021/07/07 09:49:58;;;;;;;;;18.50;18.50;;;;;;;;8816869;40;10609;-66
2021/07/07 09:56:04;;;;;;;;;19.75;17.75;;;;;;;;8815853;40;10496;-65
2021/07/07 10:02:08;;;;;;;;;17.50;17.00;;;;;;;;8820722;40;10504;-68
2021/07/07 10:08:10;;;;;;;;;14.75;14.75;;;;;;;;8839121;40;10268;-65
2021/07/07 10:14:13;;;;;;;;;19.75;19.75;;;;;;;;8831045;40;10371;-67
2021/07/07 10:20:15;;;;;;;;;19.50;16.75;;;;;;;;8840077;40;10473;-64
2021/07/07 10:26:23;;;;;;;;;18.25;17.50;;;;;;;;8843389;40;10433;-63
2021/07/07 10:32:29;;;;;;;;;16.25;15.00;;;;;;;;8825143;40;10393;-65
2021/07/07 10:38:33;;;;;;;;;20.00;20.00;;;;;;;;8837535;40;10314;-64
2021/07/07 10:44:35;;;;;;;;;17.50;17.50;;;;;;;;8839167;40;10369;-64
2021/07/07 10:50:37;;;;;;;;;21.25;19.50;;;;;;;;8833814;40;10431;-66
2021/07/07 10:56:44;;;;;;;;;18.50;18.50;;;;;;;;8838645;40;10547;-65
2021/07/07 11:02:48;;;;;;;;;17.75;17.75;;;;;;;;8841145;40;10378;-64
2021/07/07 11:08:55;;;;;;;;;27.25;27.00;;;;;;;;8835177;40;10252;-64
2021/07/07 11:15:04;;;;;;;;;25.50;23.50;;;;;;;;8827138;40;10409;-65
2021/07/07 11:21:07;;;;;;;;;16.00;15.75;;;;;;;;8823271;40;10340;-66
2021/07/07 11:27:09;;;;;;;;;17.00;17.00;;;;;;;;8829788;40;10852;-63
2021/07/07 11:33:11;;;;;;;;;23.25;21.25;;;;;;;;8832687;40;10543;-64
2021/07/07 11:39:13;;;;;;;;;22.00;21.00;;;;;;;;8823005;40;10741;-65
2021/07/07 11:45:20;;;;;;;;;23.00;21.25;;;;;;;;8808005;40;10539;-68
2021/07/07 11:51:23;;;;;;;;;23.00;22.25;;;;;;;;8841804;40;10661;-64
2021/07/07 11:57:24;;;;;;;;;21.25;21.25;;;;;;;;8823432;40;10307;-63
2021/07/07 12:03:27;;;;;;;;;23.75;23.75;;;;;;;;8820222;40;10401;-64
2021/07/07 12:09:33;;;;;;;;;19.50;18.50;;;;;;;;8821230;40;10527;-63
2021/07/07 12:15:35;;;;;;;;;15.00;15.00;;;;;;;;8838421;40;10374;-65
2021/07/07 12:21:48;;;;;;;;;17.75;14.00;;;;;;;;8820379;40;10375;-63
2021/07/07 12:27:50;;;;;;;;;19.50;15.75;;;;;;;;8829861;40;10503;-64
2021/07/07 12:33:55;;;;;;;;;18.75;18.75;;;;;;;;8837571;40;10389;-64
2021/07/07 12:39:59;;;;;;;;;21.75;18.25;;;;;;;;8831790;40;10417;-64
2021/07/07 12:46:05;;;;;;;;;18.75;16.50;;;;;;;;8834883;40;10372;-65
2021/07/07 12:52:19;;;;;;;;;18.00;18.00;;;;;;;;8830155;40;10619;-66
2021/07/07 12:58:21;;;;;;;;;18.50;14.50;;;;;;;;8831064;40;10472;-66
2021/07/07 13:04:25;;;;;;;;;11.25;11.25;;;;;;;;8828388;40;10345;-66
2021/07/07 13:10:34;;;;;;;;;21.75;20.75;;;;;;;;8814370;40;10252;-66
2021/07/07 13:16:36;;;;;;;;;16.00;14.25;;;;;;;;8845836;40;10325;-64
2021/07/07 13:22:38;;;;;;;;;13.25;12.50;;;;;;;;8845700;40;10506;-65
2021/07/07 13:28:40;;;;;;;;;16.50;13.75;;;;;;;;8832378;40;10572;-64
2021/07/07 13:35:00;;;;;;;;;19.25;16.25;;;;;;;;8846291;40;10267;-65
2021/07/07 13:41:02;;;;;;;;;17.75;16.25;;;;;;;;8857586;40;10989;-64
2021/07/07 13:47:04;;;;;;;;;14.00;14.00;;;;;;;;8833345;40;10270;-63
2021/07/07 13:53:06;;;;;;;;;16.00;13.50;;;;;;;;8819481;40;10311;-68
2021/07/07 13:59:08;;;;;;;;;17.75;16.25;;;;;;;;8835794;40;11028;-64
2021/07/07 14:05:11;;;;;;;;;14.00;14.00;;;;;;;;8838566;40;10330;-66
2021/07/07 14:11:13;;;;;;;;;13.75;13.75;;;;;;;;8833384;40;10271;-65
2021/07/07 14:17:15;;;;;;;;;28.00;24.50;;;;;;;;8839380;40;10411;-65
2021/07/07 14:23:18;;;;;;;;;24.00;20.00;;;;;;;;8838450;40;10320;-64
2021/07/07 14:29:20;;;;;;;;;19.00;17.50;;;;;;;;8850605;40;10383;-64
2021/07/07 14:35:22;;;;;;;;;18.25;16.75;;;;;;;;8857694;40;10932;-64
2021/07/07 14:41:28;;;;;;;;;17.50;16.50;;;;;;;;8839413;40;10502;-64
2021/07/07 14:47:30;;;;;;;;;20.75;18.50;;;;;;;;8824836;40;10364;-65
2021/07/07 14:53:32;;;;;;;;;16.00;15.00;;;;;;;;8824257;40;10544;-63
2021/07/07 14:59:35;;;;;;;;;15.00;14.50;;;;;;;;8825374;40;10283;-66
2021/07/07 15:05:37;;;;;;;;;18.25;17.25;;;;;;;;8823907;40;10300;-66
2021/07/07 15:11:40;;;;;;;;;14.00;13.00;;;;;;;;8840818;40;10173;-65
2021/07/07 15:17:43;;;;;;;;;16.50;16.00;;;;;;;;8841419;40;11270;-66
2021/07/07 15:23:45;;;;;;;;;13.00;13.00;;;;;;;;8824699;40;10874;-65
2021/07/07 15:29:47;;;;;;;;;14.75;13.50;;;;;;;;8825206;40;11645;-65
2021/07/07 15:35:49;;;;;;;;;13.50;13.25;;;;;;;;8841820;40;10286;-64
2021/07/07 15:41:51;;;;;;;;;13.00;11.50;;;;;;;;8842134;40;10153;-64
2021/07/07 15:47:53;;;;;;;;;8.75;8.75;;;;;;;;8847907;40;10388;-65
2021/07/07 15:53:56;;;;;;;;;14.25;12.00;;;;;;;;8848153;40;10311;-63
2021/07/07 15:59:58;;;;;;;;;13.25;13.25;;;;;;;;8848681;40;10374;-67
2021/07/07 16:06:00;;;;;;;;;17.25;13.00;;;;;;;;8829359;40;10306;-65
2021/07/07 16:12:21;;;;;;;;;15.25;13.75;;;;;;;;8825149;40;10321;-64
2021/07/07 16:18:23;;;;;;;;;14.25;14.00;;;;;;;;8822912;40;10306;-65
2021/07/07 16:24:26;;;;;;;;;14.75;13.00;;;;;;;;8823086;40;10481;-65
2021/07/07 16:30:28;;;;;;;;;13.25;13.25;;;;;;;;8847315;40;10900;-63
2021/07/07 16:36:30;;;;;;;;;12.50;12.50;;;;;;;;8846936;40;10589;-65
2021/07/07 16:42:32;;;;;;;;;16.00;16.00;;;;;;;;8839487;40;10354;-67
2021/07/07 16:48:34;;;;;;;;;15.00;12.00;;;;;;;;8840682;40;10561;-64
2021/07/07 16:54:36;;;;;;;;;17.75;16.50;;;;;;;;8822678;40;10605;-64
2021/07/07 17:00:38;;;;;;;;;17.00;17.00;;;;;;;;8822971;40;11208;-64
2021/07/07 17:06:41;;;;;;;;;16.50;16.50;;;;;;;;8838071;40;10550;-64
2021/07/07 17:12:43;;;;;;;;;13.75;13.00;;;;;;;;8848611;40;10249;-64
2021/07/07 17:18:46;;;;;;;;;18.00;17.50;;;;;;;;8845713;40;10331;-65
2021/07/07 17:24:48;;;;;;;;;16.50;15.75;;;;;;;;8820038;40;10353;-64
2021/07/07 17:30:50;;;;;;;;;18.00;16.25;;;;;;;;8828582;40;10287;-63
2021/07/07 17:36:52;;;;;;;;;13.75;12.50;;;;;;;;8847470;40;10937;-64
2021/07/07 17:42:54;;;;;;;;;16.25;15.75;;;;;;;;8847010;40;10504;-64
2021/07/07 17:48:56;;;;;;;;;14.00;14.00;;;;;;;;8843188;40;10531;-64
2021/07/07 17:54:58;;;;;;;;;17.75;16.25;;;;;;;;8844818;40;10831;-64
2021/07/07 18:01:00;;;;;;;;;18.50;14.50;;;;;;;;8823534;40;10443;-65
2021/07/07 18:07:03;;;;;;;;;17.25;15.00;;;;;;;;8824594;40;10316;-64
2021/07/07 18:13:05;;;;;;;;;17.75;17.75;;;;;;;;8824710;40;10983;-63
2021/07/07 18:19:07;;;;;;;;;18.25;17.25;;;;;;;;8833822;40;10405;-65
2021/07/07 18:25:10;;;;;;;;;19.75;18.50;;;;;;;;8847291;40;10342;-63
2021/07/07 18:31:12;;;;;;;;;21.00;19.25;;;;;;;;8838690;40;10240;-64
2021/07/07 18:37:14;;;;;;;;;18.75;17.75;;;;;;;;8838240;40;10681;-67
2021/07/07 18:43:16;;;;;;;;;17.50;14.00;;;;;;;;8848763;40;10359;-64
2021/07/07 18:49:18;;;;;;;;;16.75;15.50;;;;;;;;8847373;40;10566;-63
2021/07/07 18:55:23;;;;;;;;;17.00;16.50;;;;;;;;8846904;40;10944;-63
2021/07/07 19:01:27;;;;;;;;;20.50;17.00;;;;;;;;8847039;40;10284;-66
2021/07/07 19:07:29;;;;;;;;;15.00;14.50;;;;;;;;8838386;40;11003;-64
2021/07/07 19:13:32;;;;;;;;;15.50;15.50;;;;;;;;8837499;40;10412;-63
2021/07/07 19:19:35;;;;;;;;;17.50;14.50;;;;;;;;8831846;40;10458;-64
2021/07/07 19:25:38;;;;;;;;;22.25;20.00;;;;;;;;8846880;40;10459;-64
2021/07/07 19:31:45;;;;;;;;;20.50;19.50;;;;;;;;8847776;40;10418;-65
2021/07/07 19:37:49;;;;;;;;;20.50;17.50;;;;;;;;8847280;40;10824;-64
2021/07/07 19:43:51;;;;;;;;;19.25;19.00;;;;;;;;8846262;40;11214;-64
2021/07/07 19:49:54;;;;;;;;;19.50;18.75;;;;;;;;8831551;40;10464;-64
2021/07/07 19:55:56;;;;;;;;;22.75;21.25;;;;;;;;8846765;40;10597;-63
2021/07/07 20:01:58;;;;;;;;;17.50;17.50;;;;;;;;8846818;40;10754;-64
2021/07/07 20:08:00;;;;;;;;;23.75;20.25;;;;;;;;8797915;40;11473;-63
2021/07/07 20:14:02;;;;;;;;;20.00;18.50;;;;;;;;8797994;40;10642;-64
2021/07/07 20:20:07;;;;;;;;;16.50;16.25;;;;;;;;8796538;40;10647;-63
2021/07/07 20:26:09;;;;;;;;;18.50;17.00;;;;;;;;8796765;40;10848;-64
2021/07/07 20:32:11;;;;;;;;;23.25;21.75;;;;;;;;8796918;40;10879;-63
2021/07/07 20:38:12;;;;;;;;;20.75;16.50;;;;;;;;8797168;40;10797;-63
2021/07/07 20:44:15;;;;;;;;;20.75;17.25;;;;;;;;8796496;40;10767;-63
2021/07/07 20:50:17;;;;;;;;;17.25;17.25;;;;;;;;8789675;40;10793;-62
2021/07/07 20:56:19;;;;;;;;;15.75;15.75;;;;;;;;8771910;40;10671;-63
2021/07/07 21:02:21;;;;;;;;;23.75;18.75;;;;;;;;8775718;40;11478;-62
2021/07/07 21:08:23;;;;;;;;;19.25;18.25;;;;;;;;8821118;40;10624;-64
2021/07/07 21:14:25;;;;;;;;;15.25;14.50;;;;;;;;8803311;40;10527;-65
2021/07/07 21:20:27;;;;;;;;;20.00;17.00;;;;;;;;8826274;40;10589;-64
2021/07/07 21:26:29;;;;;;;;;16.50;16.25;;;;;;;;8833298;40;11155;-63
2021/07/07 21:32:31;;;;;;;;;15.25;13.50;;;;;;;;8844389;40;10448;-62
2021/07/07 21:38:33;;;;;;;;;19.25;16.75;;;;;;;;8848288;40;10530;-63
2021/07/07 21:44:36;;;;;;;;;18.00;15.50;;;;;;;;8849236;40;10391;-63
2021/07/07 21:50:39;;;;;;;;;17.75;17.00;;;;;;;;8847223;40;10543;-63
2021/07/07 21:56:41;;;;;;;;;17.75;15.00;;;;;;;;8847354;40;10412;-64
2021/07/07 22:02:45;;;;;;;;;16.00;16.00;;;;;;;;8848587;40;10436;-62
2021/07/07 22:08:46;;;;;;;;;15.75;15.75;;;;;;;;8849172;40;10555;-63
2021/07/07 22:14:48;;;;;;;;;18.75;18.25;;;;;;;;8848054;40;10707;-63
2021/07/07 22:20:50;;;;;;;;;22.25;18.75;;;;;;;;8847337;40;10539;-63
2021/07/07 22:26:52;;;;;;;;;21.50;21.50;;;;;;;;8847373;40;10829;-62
2021/07/07 22:32:56;;;;;;;;;21.25;19.25;;;;;;;;8839580;40;10887;-61
2021/07/07 22:38:58;;;;;;;;;18.25;18.25;;;;;;;;8847960;40;10508;-63
2021/07/07 22:45:00;;;;;;;;;18.50;18.50;;;;;;;;8823283;40;10639;-63
2021/07/07 22:51:05;;;;;;;;;23.50;20.25;;;;;;;;8847442;40;10930;-63
2021/07/07 22:57:07;;;;;;;;;23.00;21.00;;;;;;;;8847313;40;10645;-63
2021/07/07 23:03:10;;;;;;;;;20.75;19.50;;;;;;;;8839040;40;10680;-63
2021/07/07 23:09:12;;;;;;;;;15.75;15.75;;;;;;;;8846300;40;10499;-63
2021/07/07 23:15:14;;;;;;;;;17.50;12.00;;;;;;;;8846489;40;10744;-63
2021/07/07 23:21:16;;;;;;;;;21.25;19.00;;;;;;;;8822182;40;10624;-63
2021/07/07 23:27:18;;;;;;;;;21.75;19.00;;;;;;;;8822253;40;10643;-63
2021/07/07 23:33:20;;;;;;;;;18.00;18.00;;;;;;;;8823242;40;10441;-64
2021/07/07 23:39:22;;;;;;;;;18.00;17.00;;;;;;;;8831000;40;10582;-62
2021/07/07 23:45:25;;;;;;;;;23.25;19.25;;;;;;;;8847980;40;10704;-63
2021/07/07 23:51:27;;;;;;;;;21.00;20.25;;;;;;;;8847250;40;10483;-62
2021/07/07 23:57:28;;;;;;;;;20.75;19.00;;;;;;;;8837734;40;10842;-63
